KSRQ/SRQ METAR and TAF weather

Enter ICAO airport designator
Station Type Date Time Source
KSRQ METAR 2020/01/24 02:53 UTC NOAA

KSRQ 240253Z 08011KT 10SM BKN009 18/17 A3002 RMK AO2 SLP165 T01830167 51010


Station Type Date Time Source
KSRQ Decoded METAR 2020/01/24 02:53 UTC NOAA

SARASOTA/BRADENTON INTERNATIONAL ., FL, United States (KSRQ) 27-24N 082-33W 18M
Jan 23, 2020 - 09:53 PM EST / 2020.01.24 0253 UTC
Wind: from the E (080 degrees) at 13 MPH (11 KT):0
Visibility: 10 mile(s):0
Sky conditions: mostly cloudy
Temperature: 64.9 F (18.3 C)
Dew Point: 62.1 F (16.7 C)
Relative Humidity: 90%
Pressure (altimeter): 30.02 in. Hg (1016 hPa)
Pressure tendency: 0.03 inches (1.0 hPa) higher than three hours ago
ob: KSRQ 240253Z 08011KT 10SM BKN009 18/17 A3002 RMK AO2 SLP165 T01830167 51010
cycle: 3

Station Type Date Time Source
KSRQ TAF 2020/01/24 02:57 UTC NOAA

TAF
AMD KSRQ 240154Z 2402/2424 07008KT P6SM FEW015 BKN150
TEMPO 2402/2404 BKN015
FM240800 11004KT 6SM BR SCT005 BKN015
FM241400 19009KT P6SM FEW010 SCT040
FM241900 23009KT P6SM SCT040 BKN250

Example: see airport list